sensor_id;sensor_type;location;lat;lon;timestamp;P1;durP1;ratioP1;P2;durP2;ratioP2
9898;SDS011;4988;49.238;6.698;2023-04-01T00:00:32;5.43;;;2.43;;
9898;SDS011;4988;49.238;6.698;2023-04-01T00:02:58;7.07;;;2.63;;
9898;SDS011;4988;49.238;6.698;2023-04-01T00:05:23;6.17;;;2.80;;
9898;SDS011;4988;49.238;6.698;2023-04-01T00:07:50;9.53;;;2.70;;
9898;SDS011;4988;49.238;6.698;2023-04-01T00:10:16;7.13;;;2.70;;
9898;SDS011;4988;49.238;6.698;2023-04-01T00:12:42;10.87;;;2.90;;
9898;SDS011;4988;49.238;6.698;2023-04-01T00:15:08;10.97;;;2.90;;
9898;SDS011;4988;49.238;6.698;2023-04-01T00:17:35;11.97;;;3.23;;
9898;SDS011;4988;49.238;6.698;2023-04-01T00:20:01;9.07;;;3.03;;
9898;SDS011;4988;49.238;6.698;2023-04-01T00:22:27;7.80;;;3.03;;
9898;SDS011;4988;49.238;6.698;2023-04-01T00:24:53;7.23;;;2.90;;
9898;SDS011;4988;49.238;6.698;2023-04-01T00:27:19;8.53;;;3.13;;
9898;SDS011;4988;49.238;6.698;2023-04-01T00:29:45;13.33;;;3.07;;
9898;SDS011;4988;49.238;6.698;2023-04-01T00:32:12;6.97;;;3.00;;
9898;SDS011;4988;49.238;6.698;2023-04-01T00:34:38;9.20;;;2.90;;
9898;SDS011;4988;49.238;6.698;2023-04-01T00:37:04;8.10;;;2.87;;
9898;SDS011;4988;49.238;6.698;2023-04-01T00:39:31;11.70;;;3.63;;
9898;SDS011;4988;49.238;6.698;2023-04-01T00:41:58;7.60;;;2.70;;
9898;SDS011;4988;49.238;6.698;2023-04-01T00:44:26;8.67;;;2.70;;
9898;SDS011;4988;49.238;6.698;2023-04-01T00:46:53;6.27;;;2.60;;
9898;SDS011;4988;49.238;6.698;2023-04-01T00:49:20;8.20;;;2.90;;
9898;SDS011;4988;49.238;6.698;2023-04-01T00:51:53;7.53;;;2.93;;
9898;SDS011;4988;49.238;6.698;2023-04-01T00:54:21;7.50;;;2.70;;
9898;SDS011;4988;49.238;6.698;2023-04-01T00:56:53;7.73;;;3.10;;
9898;SDS011;4988;49.238;6.698;2023-04-01T00:59:24;7.57;;;2.87;;
9898;SDS011;4988;49.238;6.698;2023-04-01T01:01:52;11.00;;;3.60;;
9898;SDS011;4988;49.238;6.698;2023-04-01T01:04:22;8.50;;;3.10;;
9898;SDS011;4988;49.238;6.698;2023-04-01T01:07:12;8.20;;;2.33;;
9898;SDS011;4988;49.238;6.698;2023-04-01T01:10:00;7.63;;;2.90;;
9898;SDS011;4988;49.238;6.698;2023-04-01T01:32:16;9.73;;;2.90;;
9898;SDS011;4988;49.238;6.698;2023-04-01T01:34:54;10.67;;;2.97;;
9898;SDS011;4988;49.238;6.698;2023-04-01T01:37:40;13.93;;;3.53;;
9898;SDS011;4988;49.238;6.698;2023-04-01T01:40:09;9.20;;;3.07;;
9898;SDS011;4988;49.238;6.698;2023-04-01T01:42:37;8.43;;;3.00;;
9898;SDS011;4988;49.238;6.698;2023-04-01T01:45:07;9.57;;;3.20;;
9898;SDS011;4988;49.238;6.698;2023-04-01T01:47:36;8.67;;;2.70;;
9898;SDS011;4988;49.238;6.698;2023-04-01T01:50:02;9.63;;;3.00;;
9898;SDS011;4988;49.238;6.698;2023-04-01T01:52:29;9.37;;;2.80;;
9898;SDS011;4988;49.238;6.698;2023-04-01T01:54:56;10.53;;;3.20;;
9898;SDS011;4988;49.238;6.698;2023-04-01T01:57:26;7.77;;;2.90;;
9898;SDS011;4988;49.238;6.698;2023-04-01T01:59:55;7.23;;;2.90;;
9898;SDS011;4988;49.238;6.698;2023-04-01T02:02:23;8.47;;;2.90;;
9898;SDS011;4988;49.238;6.698;2023-04-01T02:04:51;8.30;;;2.90;;
9898;SDS011;4988;49.238;6.698;2023-04-01T02:07:22;8.57;;;3.00;;
9898;SDS011;4988;49.238;6.698;2023-04-01T02:09:52;11.87;;;3.27;;
9898;SDS011;4988;49.238;6.698;2023-04-01T02:12:17;10.90;;;2.80;;
9898;SDS011;4988;49.238;6.698;2023-04-01T02:14:50;17.33;;;3.50;;
9898;SDS011;4988;49.238;6.698;2023-04-01T02:17:21;10.63;;;2.90;;
9898;SDS011;4988;49.238;6.698;2023-04-01T02:20:08;11.27;;;3.10;;
9898;SDS011;4988;49.238;6.698;2023-04-01T02:22:38;7.83;;;2.53;;
9898;SDS011;4988;49.238;6.698;2023-04-01T02:25:08;7.53;;;3.10;;
9898;SDS011;4988;49.238;6.698;2023-04-01T02:27:37;6.13;;;2.90;;
9898;SDS011;4988;49.238;6.698;2023-04-01T02:30:03;10.43;;;2.80;;
9898;SDS011;4988;49.238;6.698;2023-04-01T02:32:29;10.00;;;2.67;;
9898;SDS011;4988;49.238;6.698;2023-04-01T02:34:58;9.17;;;2.77;;
9898;SDS011;4988;49.238;6.698;2023-04-01T02:37:25;8.63;;;2.60;;
9898;SDS011;4988;49.238;6.698;2023-04-01T02:39:50;7.60;;;2.43;;
9898;SDS011;4988;49.238;6.698;2023-04-01T02:42:15;8.00;;;2.60;;
9898;SDS011;4988;49.238;6.698;2023-04-01T02:44:41;6.03;;;2.77;;
9898;SDS011;4988;49.238;6.698;2023-04-01T02:47:06;7.33;;;2.80;;
9898;SDS011;4988;49.238;6.698;2023-04-01T02:49:31;10.97;;;2.60;;
9898;SDS011;4988;49.238;6.698;2023-04-01T02:51:57;8.20;;;2.97;;
9898;SDS011;4988;49.238;6.698;2023-04-01T02:54:22;8.77;;;2.70;;
9898;SDS011;4988;49.238;6.698;2023-04-01T02:56:47;8.20;;;2.67;;
9898;SDS011;4988;49.238;6.698;2023-04-01T02:59:13;12.80;;;3.00;;
9898;SDS011;4988;49.238;6.698;2023-04-01T03:01:38;5.57;;;2.40;;
9898;SDS011;4988;49.238;6.698;2023-04-01T03:04:03;9.50;;;2.70;;
9898;SDS011;4988;49.238;6.698;2023-04-01T03:06:29;6.93;;;3.20;;
9898;SDS011;4988;49.238;6.698;2023-04-01T03:08:55;11.53;;;3.53;;
9898;SDS011;4988;49.238;6.698;2023-04-01T03:11:20;7.93;;;2.47;;
9898;SDS011;4988;49.238;6.698;2023-04-01T03:13:46;8.07;;;3.00;;
9898;SDS011;4988;49.238;6.698;2023-04-01T03:16:11;12.20;;;3.30;;
9898;SDS011;4988;49.238;6.698;2023-04-01T03:18:37;8.97;;;3.10;;
9898;SDS011;4988;49.238;6.698;2023-04-01T03:21:15;6.87;;;2.50;;
9898;SDS011;4988;49.238;6.698;2023-04-01T03:23:45;8.70;;;2.80;;
9898;SDS011;4988;49.238;6.698;2023-04-01T03:26:11;9.17;;;2.70;;
9898;SDS011;4988;49.238;6.698;2023-04-01T03:28:36;9.03;;;3.10;;
9898;SDS011;4988;49.238;6.698;2023-04-01T03:31:02;8.33;;;2.63;;
9898;SDS011;4988;49.238;6.698;2023-04-01T03:33:27;7.37;;;3.33;;
9898;SDS011;4988;49.238;6.698;2023-04-01T03:35:52;9.93;;;3.13;;
9898;SDS011;4988;49.238;6.698;2023-04-01T03:38:18;9.73;;;2.83;;
9898;SDS011;4988;49.238;6.698;2023-04-01T03:40:44;6.20;;;2.70;;
9898;SDS011;4988;49.238;6.698;2023-04-01T03:43:10;4.67;;;2.80;;
9898;SDS011;4988;49.238;6.698;2023-04-01T03:45:36;16.53;;;3.03;;
9898;SDS011;4988;49.238;6.698;2023-04-01T03:48:08;6.03;;;2.63;;
9898;SDS011;4988;49.238;6.698;2023-04-01T03:50:34;6.60;;;2.53;;
9898;SDS011;4988;49.238;6.698;2023-04-01T03:53:00;7.17;;;2.53;;
9898;SDS011;4988;49.238;6.698;2023-04-01T03:55:25;6.97;;;2.77;;
9898;SDS011;4988;49.238;6.698;2023-04-01T03:57:51;7.77;;;3.03;;
9898;SDS011;4988;49.238;6.698;2023-04-01T04:00:16;10.23;;;3.13;;
9898;SDS011;4988;49.238;6.698;2023-04-01T04:02:41;5.77;;;2.70;;
9898;SDS011;4988;49.238;6.698;2023-04-01T04:05:07;7.60;;;2.97;;
9898;SDS011;4988;49.238;6.698;2023-04-01T04:07:33;7.47;;;3.03;;
9898;SDS011;4988;49.238;6.698;2023-04-01T04:09:59;8.73;;;2.77;;
9898;SDS011;4988;49.238;6.698;2023-04-01T04:12:24;11.53;;;3.57;;
9898;SDS011;4988;49.238;6.698;2023-04-01T04:14:50;7.57;;;2.50;;
9898;SDS011;4988;49.238;6.698;2023-04-01T04:17:15;6.37;;;2.73;;
9898;SDS011;4988;49.238;6.698;2023-04-01T04:19:41;8.60;;;3.00;;
9898;SDS011;4988;49.238;6.698;2023-04-01T04:22:07;8.83;;;3.23;;
9898;SDS011;4988;49.238;6.698;2023-04-01T04:24:33;8.17;;;2.47;;
9898;SDS011;4988;49.238;6.698;2023-04-01T04:27:00;3.93;;;2.67;;
9898;SDS011;4988;49.238;6.698;2023-04-01T04:29:25;6.33;;;2.83;;
9898;SDS011;4988;49.238;6.698;2023-04-01T04:31:50;8.63;;;2.70;;
9898;SDS011;4988;49.238;6.698;2023-04-01T04:34:16;8.73;;;2.80;;
9898;SDS011;4988;49.238;6.698;2023-04-01T04:36:41;8.43;;;2.63;;
9898;SDS011;4988;49.238;6.698;2023-04-01T04:39:06;7.17;;;2.90;;
9898;SDS011;4988;49.238;6.698;2023-04-01T04:41:32;5.87;;;2.80;;
9898;SDS011;4988;49.238;6.698;2023-04-01T04:43:57;4.17;;;2.43;;
9898;SDS011;4988;49.238;6.698;2023-04-01T04:46:23;10.70;;;2.87;;
9898;SDS011;4988;49.238;6.698;2023-04-01T04:48:49;7.67;;;2.67;;
9898;SDS011;4988;49.238;6.698;2023-04-01T04:51:15;7.93;;;2.30;;
9898;SDS011;4988;49.238;6.698;2023-04-01T04:53:42;9.00;;;3.00;;
9898;SDS011;4988;49.238;6.698;2023-04-01T04:56:08;7.60;;;3.10;;
9898;SDS011;4988;49.238;6.698;2023-04-01T04:58:33;7.97;;;3.03;;
9898;SDS011;4988;49.238;6.698;2023-04-01T05:01:04;9.23;;;2.87;;
9898;SDS011;4988;49.238;6.698;2023-04-01T05:03:31;9.73;;;2.87;;
9898;SDS011;4988;49.238;6.698;2023-04-01T05:05:56;4.90;;;2.80;;
9898;SDS011;4988;49.238;6.698;2023-04-01T05:08:21;9.77;;;2.57;;
9898;SDS011;4988;49.238;6.698;2023-04-01T05:10:47;5.43;;;2.87;;
9898;SDS011;4988;49.238;6.698;2023-04-01T05:13:12;4.33;;;2.50;;
9898;SDS011;4988;49.238;6.698;2023-04-01T05:15:37;11.70;;;3.23;;
9898;SDS011;4988;49.238;6.698;2023-04-01T05:18:03;5.80;;;2.27;;
9898;SDS011;4988;49.238;6.698;2023-04-01T05:20:28;6.77;;;2.63;;
9898;SDS011;4988;49.238;6.698;2023-04-01T05:22:57;4.13;;;2.53;;
9898;SDS011;4988;49.238;6.698;2023-04-01T05:25:23;7.47;;;2.57;;
9898;SDS011;4988;49.238;6.698;2023-04-01T05:27:48;5.03;;;2.63;;
9898;SDS011;4988;49.238;6.698;2023-04-01T05:30:14;4.20;;;2.60;;
9898;SDS011;4988;49.238;6.698;2023-04-01T05:32:39;5.20;;;2.60;;
9898;SDS011;4988;49.238;6.698;2023-04-01T05:35:05;4.50;;;2.63;;
9898;SDS011;4988;49.238;6.698;2023-04-01T05:37:32;4.97;;;2.57;;
9898;SDS011;4988;49.238;6.698;2023-04-01T05:39:59;5.37;;;2.80;;
9898;SDS011;4988;49.238;6.698;2023-04-01T05:42:24;4.93;;;2.80;;
9898;SDS011;4988;49.238;6.698;2023-04-01T05:44:50;5.53;;;2.27;;
9898;SDS011;4988;49.238;6.698;2023-04-01T05:47:15;8.33;;;2.87;;
9898;SDS011;4988;49.238;6.698;2023-04-01T05:49:40;5.57;;;3.00;;
9898;SDS011;4988;49.238;6.698;2023-04-01T05:52:06;7.00;;;2.83;;
9898;SDS011;4988;49.238;6.698;2023-04-01T05:54:31;4.80;;;2.40;;
9898;SDS011;4988;49.238;6.698;2023-04-01T05:56:56;4.03;;;2.50;;
9898;SDS011;4988;49.238;6.698;2023-04-01T05:59:22;6.60;;;2.57;;
9898;SDS011;4988;49.238;6.698;2023-04-01T06:01:47;3.00;;;2.47;;
9898;SDS011;4988;49.238;6.698;2023-04-01T06:04:17;7.73;;;2.47;;
9898;SDS011;4988;49.238;6.698;2023-04-01T06:06:43;6.60;;;2.97;;
9898;SDS011;4988;49.238;6.698;2023-04-01T06:09:16;4.80;;;2.70;;
9898;SDS011;4988;49.238;6.698;2023-04-01T06:11:51;3.50;;;2.20;;
9898;SDS011;4988;49.238;6.698;2023-04-01T06:25:56;4.93;;;2.47;;
9898;SDS011;4988;49.238;6.698;2023-04-01T06:34:18;2.90;;;2.70;;
9898;SDS011;4988;49.238;6.698;2023-04-01T06:40:16;7.27;;;2.70;;
9898;SDS011;4988;49.238;6.698;2023-04-01T06:43:21;3.23;;;1.90;;
9898;SDS011;4988;49.238;6.698;2023-04-01T07:01:08;3.30;;;2.43;;
9898;SDS011;4988;49.238;6.698;2023-04-01T07:03:42;3.80;;;2.23;;
9898;SDS011;4988;49.238;6.698;2023-04-01T07:06:14;3.20;;;2.60;;
9898;SDS011;4988;49.238;6.698;2023-04-01T07:08:50;3.23;;;2.93;;
9898;SDS011;4988;49.238;6.698;2023-04-01T07:11:22;2.23;;;2.10;;
9898;SDS011;4988;49.238;6.698;2023-04-01T07:13:54;6.70;;;2.67;;
9898;SDS011;4988;49.238;6.698;2023-04-01T07:16:30;3.23;;;2.10;;
9898;SDS011;4988;49.238;6.698;2023-04-01T07:22:00;3.50;;;3.03;;
9898;SDS011;4988;49.238;6.698;2023-04-01T07:24:42;2.43;;;2.20;;
9898;SDS011;4988;49.238;6.698;2023-04-01T07:27:11;4.33;;;2.40;;
9898;SDS011;4988;49.238;6.698;2023-04-01T07:29:38;4.40;;;2.77;;
9898;SDS011;4988;49.238;6.698;2023-04-01T07:37:45;2.70;;;2.50;;
9898;SDS011;4988;49.238;6.698;2023-04-01T07:46:03;4.83;;;2.50;;
9898;SDS011;4988;49.238;6.698;2023-04-01T07:48:57;3.60;;;2.20;;
9898;SDS011;4988;49.238;6.698;2023-04-01T07:54:40;3.67;;;2.17;;
9898;SDS011;4988;49.238;6.698;2023-04-01T07:57:21;3.83;;;2.37;;
9898;SDS011;4988;49.238;6.698;2023-04-01T08:05:27;2.30;;;2.10;;
9898;SDS011;4988;49.238;6.698;2023-04-01T08:10:41;4.43;;;2.60;;
9898;SDS011;4988;49.238;6.698;2023-04-01T08:16:15;4.07;;;3.67;;
9898;SDS011;4988;49.238;6.698;2023-04-01T08:19:01;3.63;;;2.60;;
9898;SDS011;4988;49.238;6.698;2023-04-01T08:21:33;4.47;;;2.73;;
9898;SDS011;4988;49.238;6.698;2023-04-01T08:26:51;3.20;;;2.77;;
9898;SDS011;4988;49.238;6.698;2023-04-01T08:29:26;2.40;;;2.20;;
9898;SDS011;4988;49.238;6.698;2023-04-01T08:32:15;2.87;;;2.30;;
9898;SDS011;4988;49.238;6.698;2023-04-01T08:34:47;2.50;;;2.30;;
9898;SDS011;4988;49.238;6.698;2023-04-01T08:37:33;2.53;;;2.37;;
9898;SDS011;4988;49.238;6.698;2023-04-01T08:40:22;3.20;;;2.50;;
9898;SDS011;4988;49.238;6.698;2023-04-01T08:51:26;3.10;;;2.73;;
9898;SDS011;4988;49.238;6.698;2023-04-01T09:05:31;2.93;;;2.40;;
9898;SDS011;4988;49.238;6.698;2023-04-01T09:16:22;2.97;;;2.67;;
9898;SDS011;4988;49.238;6.698;2023-04-01T09:27:03;2.30;;;2.17;;
9898;SDS011;4988;49.238;6.698;2023-04-01T09:29:50;2.43;;;2.10;;
9898;SDS011;4988;49.238;6.698;2023-04-01T09:35:20;3.20;;;2.10;;
9898;SDS011;4988;49.238;6.698;2023-04-01T09:38:08;2.60;;;2.40;;
9898;SDS011;4988;49.238;6.698;2023-04-01T09:48:21;2.87;;;2.27;;
9898;SDS011;4988;49.238;6.698;2023-04-01T10:13:11;2.63;;;2.43;;
9898;SDS011;4988;49.238;6.698;2023-04-01T10:24:28;2.77;;;2.57;;
9898;SDS011;4988;49.238;6.698;2023-04-01T10:30:20;3.40;;;2.40;;
9898;SDS011;4988;49.238;6.698;2023-04-01T10:39:03;2.33;;;2.00;;
9898;SDS011;4988;49.238;6.698;2023-04-01T10:50:33;2.80;;;2.60;;
9898;SDS011;4988;49.238;6.698;2023-04-01T11:22:08;4.57;;;3.07;;
9898;SDS011;4988;49.238;6.698;2023-04-01T11:43:45;2.23;;;1.80;;
9898;SDS011;4988;49.238;6.698;2023-04-01T11:49:21;2.73;;;2.50;;
9898;SDS011;4988;49.238;6.698;2023-04-01T11:52:10;4.17;;;2.60;;
9898;SDS011;4988;49.238;6.698;2023-04-01T11:54:44;5.17;;;2.40;;
9898;SDS011;4988;49.238;6.698;2023-04-01T11:59:57;4.77;;;2.50;;
9898;SDS011;4988;49.238;6.698;2023-04-01T12:10:32;10.37;;;3.20;;
9898;SDS011;4988;49.238;6.698;2023-04-01T12:15:57;4.57;;;3.00;;
9898;SDS011;4988;49.238;6.698;2023-04-01T12:21:24;2.67;;;2.40;;
9898;SDS011;4988;49.238;6.698;2023-04-01T12:38:30;4.10;;;2.40;;
9898;SDS011;4988;49.238;6.698;2023-04-01T12:41:08;4.30;;;2.27;;
9898;SDS011;4988;49.238;6.698;2023-04-01T12:46:24;4.47;;;2.70;;
9898;SDS011;4988;49.238;6.698;2023-04-01T12:59:53;4.03;;;2.30;;
9898;SDS011;4988;49.238;6.698;2023-04-01T13:05:15;4.90;;;2.43;;
9898;SDS011;4988;49.238;6.698;2023-04-01T13:07:58;4.90;;;2.20;;
9898;SDS011;4988;49.238;6.698;2023-04-01T13:10:31;2.37;;;2.17;;
9898;SDS011;4988;49.238;6.698;2023-04-01T13:27:06;4.90;;;2.40;;
9898;SDS011;4988;49.238;6.698;2023-04-01T13:30:02;3.50;;;2.50;;
9898;SDS011;4988;49.238;6.698;2023-04-01T13:35:31;5.83;;;3.00;;
9898;SDS011;4988;49.238;6.698;2023-04-01T13:43:04;3.50;;;2.70;;
9898;SDS011;4988;49.238;6.698;2023-04-01T13:51:02;3.30;;;2.80;;
9898;SDS011;4988;49.238;6.698;2023-04-01T13:59:17;3.63;;;2.40;;
9898;SDS011;4988;49.238;6.698;2023-04-01T14:05:23;7.43;;;2.80;;
9898;SDS011;4988;49.238;6.698;2023-04-01T14:13:36;4.90;;;2.50;;
9898;SDS011;4988;49.238;6.698;2023-04-01T14:18:46;3.50;;;2.70;;
9898;SDS011;4988;49.238;6.698;2023-04-01T14:21:34;3.83;;;2.47;;
9898;SDS011;4988;49.238;6.698;2023-04-01T14:36:02;3.07;;;2.20;;
9898;SDS011;4988;49.238;6.698;2023-04-01T14:49:40;4.20;;;2.83;;
9898;SDS011;4988;49.238;6.698;2023-04-01T15:00:43;2.50;;;2.20;;
9898;SDS011;4988;49.238;6.698;2023-04-01T15:03:24;5.00;;;2.27;;
9898;SDS011;4988;49.238;6.698;2023-04-01T15:06:19;4.40;;;2.60;;
9898;SDS011;4988;49.238;6.698;2023-04-01T15:09:26;4.70;;;2.43;;
9898;SDS011;4988;49.238;6.698;2023-04-01T15:17:19;3.80;;;3.17;;
9898;SDS011;4988;49.238;6.698;2023-04-01T15:22:40;3.60;;;3.30;;
9898;SDS011;4988;49.238;6.698;2023-04-01T15:28:11;3.17;;;2.37;;
9898;SDS011;4988;49.238;6.698;2023-04-01T15:33:57;6.63;;;2.60;;
9898;SDS011;4988;49.238;6.698;2023-04-01T15:39:05;4.10;;;2.87;;
9898;SDS011;4988;49.238;6.698;2023-04-01T15:44:39;3.30;;;3.00;;
9898;SDS011;4988;49.238;6.698;2023-04-01T15:47:10;6.50;;;2.70;;
9898;SDS011;4988;49.238;6.698;2023-04-01T15:50:00;4.03;;;2.67;;
9898;SDS011;4988;49.238;6.698;2023-04-01T16:01:51;5.70;;;3.00;;
9898;SDS011;4988;49.238;6.698;2023-04-01T16:07:11;5.63;;;2.80;;
9898;SDS011;4988;49.238;6.698;2023-04-01T16:10:04;4.33;;;2.90;;
9898;SDS011;4988;49.238;6.698;2023-04-01T16:17:54;6.43;;;2.90;;
9898;SDS011;4988;49.238;6.698;2023-04-01T16:20:35;5.57;;;3.10;;
9898;SDS011;4988;49.238;6.698;2023-04-01T16:26:07;4.53;;;3.00;;
9898;SDS011;4988;49.238;6.698;2023-04-01T16:37:15;3.60;;;2.50;;
9898;SDS011;4988;49.238;6.698;2023-04-01T16:42:47;3.50;;;2.80;;
9898;SDS011;4988;49.238;6.698;2023-04-01T16:45:36;4.23;;;2.43;;
9898;SDS011;4988;49.238;6.698;2023-04-01T16:48:13;4.43;;;2.50;;
9898;SDS011;4988;49.238;6.698;2023-04-01T16:50:55;4.27;;;2.40;;
9898;SDS011;4988;49.238;6.698;2023-04-01T16:53:41;4.07;;;2.63;;
9898;SDS011;4988;49.238;6.698;2023-04-01T16:56:11;3.23;;;2.50;;
9898;SDS011;4988;49.238;6.698;2023-04-01T17:01:24;4.50;;;2.50;;
9898;SDS011;4988;49.238;6.698;2023-04-01T17:04:00;2.70;;;2.47;;
9898;SDS011;4988;49.238;6.698;2023-04-01T17:06:44;4.10;;;2.60;;
9898;SDS011;4988;49.238;6.698;2023-04-01T17:09:21;2.70;;;2.50;;
9898;SDS011;4988;49.238;6.698;2023-04-01T17:12:10;2.70;;;2.50;;
9898;SDS011;4988;49.238;6.698;2023-04-01T17:17:51;2.70;;;2.50;;
9898;SDS011;4988;49.238;6.698;2023-04-01T17:20:30;2.40;;;2.20;;
9898;SDS011;4988;49.238;6.698;2023-04-01T17:23:33;5.97;;;2.70;;
9898;SDS011;4988;49.238;6.698;2023-04-01T17:34:19;2.33;;;2.13;;
9898;SDS011;4988;49.238;6.698;2023-04-01T17:40:19;2.50;;;2.30;;
9898;SDS011;4988;49.238;6.698;2023-04-01T17:43:03;3.07;;;2.87;;
9898;SDS011;4988;49.238;6.698;2023-04-01T17:45:44;2.80;;;2.60;;
9898;SDS011;4988;49.238;6.698;2023-04-01T17:49:01;3.23;;;2.80;;
9898;SDS011;4988;49.238;6.698;2023-04-01T17:53:59;3.07;;;2.53;;
9898;SDS011;4988;49.238;6.698;2023-04-01T17:59:38;3.93;;;3.03;;
9898;SDS011;4988;49.238;6.698;2023-04-01T18:04:57;2.23;;;2.10;;
9898;SDS011;4988;49.238;6.698;2023-04-01T18:26:02;2.83;;;2.60;;
9898;SDS011;4988;49.238;6.698;2023-04-01T18:28:49;2.63;;;2.40;;
9898;SDS011;4988;49.238;6.698;2023-04-01T18:31:39;4.43;;;3.37;;
9898;SDS011;4988;49.238;6.698;2023-04-01T18:34:17;3.03;;;2.37;;
9898;SDS011;4988;49.238;6.698;2023-04-01T18:37:14;3.33;;;2.43;;
9898;SDS011;4988;49.238;6.698;2023-04-01T18:39:48;4.63;;;2.60;;
9898;SDS011;4988;49.238;6.698;2023-04-01T18:45:18;3.23;;;2.40;;
9898;SDS011;4988;49.238;6.698;2023-04-01T18:48:06;4.47;;;2.40;;
9898;SDS011;4988;49.238;6.698;2023-04-01T18:50:58;5.47;;;2.20;;
9898;SDS011;4988;49.238;6.698;2023-04-01T18:53:41;2.63;;;2.33;;
9898;SDS011;4988;49.238;6.698;2023-04-01T18:56:13;2.50;;;2.20;;
9898;SDS011;4988;49.238;6.698;2023-04-01T18:59:04;2.97;;;2.50;;
9898;SDS011;4988;49.238;6.698;2023-04-01T19:04:51;2.53;;;2.30;;
9898;SDS011;4988;49.238;6.698;2023-04-01T19:07:43;4.20;;;2.40;;
9898;SDS011;4988;49.238;6.698;2023-04-01T19:21:41;6.20;;;2.50;;
9898;SDS011;4988;49.238;6.698;2023-04-01T19:29:51;2.80;;;2.50;;
9898;SDS011;4988;49.238;6.698;2023-04-01T19:35:10;2.97;;;2.50;;
9898;SDS011;4988;49.238;6.698;2023-04-01T19:37:54;2.70;;;2.50;;
9898;SDS011;4988;49.238;6.698;2023-04-01T19:45:46;4.90;;;2.70;;
9898;SDS011;4988;49.238;6.698;2023-04-01T19:53:59;3.27;;;2.73;;
9898;SDS011;4988;49.238;6.698;2023-04-01T19:56:52;4.17;;;2.60;;
9898;SDS011;4988;49.238;6.698;2023-04-01T19:59:31;4.13;;;2.63;;
9898;SDS011;4988;49.238;6.698;2023-04-01T20:04:53;7.07;;;2.93;;
9898;SDS011;4988;49.238;6.698;2023-04-01T20:10:16;4.73;;;2.83;;
9898;SDS011;4988;49.238;6.698;2023-04-01T20:15:41;4.07;;;2.90;;
9898;SDS011;4988;49.238;6.698;2023-04-01T20:20:41;6.43;;;3.23;;
9898;SDS011;4988;49.238;6.698;2023-04-01T20:23:41;3.43;;;2.70;;
9898;SDS011;4988;49.238;6.698;2023-04-01T20:26:12;3.43;;;2.77;;
9898;SDS011;4988;49.238;6.698;2023-04-01T20:29:02;8.67;;;3.23;;
9898;SDS011;4988;49.238;6.698;2023-04-01T20:39:45;3.47;;;2.70;;
9898;SDS011;4988;49.238;6.698;2023-04-01T20:42:29;6.60;;;3.10;;
9898;SDS011;4988;49.238;6.698;2023-04-01T20:53:04;6.60;;;3.67;;
9898;SDS011;4988;49.238;6.698;2023-04-01T20:58:51;3.80;;;3.00;;
9898;SDS011;4988;49.238;6.698;2023-04-01T21:14:55;5.33;;;3.30;;
9898;SDS011;4988;49.238;6.698;2023-04-01T21:20:13;9.13;;;3.13;;
9898;SDS011;4988;49.238;6.698;2023-04-01T21:22:56;5.00;;;3.47;;
9898;SDS011;4988;49.238;6.698;2023-04-01T21:25:35;4.87;;;3.30;;
9898;SDS011;4988;49.238;6.698;2023-04-01T21:41:47;5.43;;;3.43;;
9898;SDS011;4988;49.238;6.698;2023-04-01T21:44:32;6.87;;;4.00;;
9898;SDS011;4988;49.238;6.698;2023-04-01T21:53:01;5.27;;;3.33;;
9898;SDS011;4988;49.238;6.698;2023-04-01T21:55:42;6.33;;;4.17;;
9898;SDS011;4988;49.238;6.698;2023-04-01T22:01:40;5.77;;;3.77;;
9898;SDS011;4988;49.238;6.698;2023-04-01T22:04:29;5.27;;;3.57;;
9898;SDS011;4988;49.238;6.698;2023-04-01T22:07:21;8.90;;;4.03;;
9898;SDS011;4988;49.238;6.698;2023-04-01T22:09:59;6.93;;;3.93;;
9898;SDS011;4988;49.238;6.698;2023-04-01T22:12:41;8.00;;;4.10;;
9898;SDS011;4988;49.238;6.698;2023-04-01T22:18:22;7.97;;;4.73;;
9898;SDS011;4988;49.238;6.698;2023-04-01T22:23:54;6.07;;;4.30;;
9898;SDS011;4988;49.238;6.698;2023-04-01T22:26:36;6.80;;;3.83;;
9898;SDS011;4988;49.238;6.698;2023-04-01T22:32:17;3.40;;;3.10;;
9898;SDS011;4988;49.238;6.698;2023-04-01T22:34:53;4.07;;;3.23;;
9898;SDS011;4988;49.238;6.698;2023-04-01T22:40:25;3.57;;;3.27;;
9898;SDS011;4988;49.238;6.698;2023-04-01T22:43:15;4.00;;;3.30;;
9898;SDS011;4988;49.238;6.698;2023-04-01T22:49:07;4.73;;;3.50;;
9898;SDS011;4988;49.238;6.698;2023-04-01T22:51:57;5.90;;;3.93;;
9898;SDS011;4988;49.238;6.698;2023-04-01T22:54:50;5.73;;;4.27;;
9898;SDS011;4988;49.238;6.698;2023-04-01T22:57:36;6.53;;;4.63;;
9898;SDS011;4988;49.238;6.698;2023-04-01T23:03:10;6.10;;;4.43;;
9898;SDS011;4988;49.238;6.698;2023-04-01T23:05:54;7.37;;;4.73;;
9898;SDS011;4988;49.238;6.698;2023-04-01T23:11:18;6.50;;;5.00;;
9898;SDS011;4988;49.238;6.698;2023-04-01T23:13:45;8.70;;;4.73;;
9898;SDS011;4988;49.238;6.698;2023-04-01T23:16:17;9.23;;;4.93;;
9898;SDS011;4988;49.238;6.698;2023-04-01T23:21:39;8.70;;;4.33;;
9898;SDS011;4988;49.238;6.698;2023-04-01T23:24:27;7.20;;;4.80;;
9898;SDS011;4988;49.238;6.698;2023-04-01T23:26:59;8.17;;;4.97;;
9898;SDS011;4988;49.238;6.698;2023-04-01T23:29:29;6.23;;;4.60;;
9898;SDS011;4988;49.238;6.698;2023-04-01T23:31:58;7.00;;;4.93;;
9898;SDS011;4988;49.238;6.698;2023-04-01T23:34:26;6.37;;;4.57;;
9898;SDS011;4988;49.238;6.698;2023-04-01T23:36:56;6.27;;;4.53;;
9898;SDS011;4988;49.238;6.698;2023-04-01T23:39:36;7.93;;;4.47;;
9898;SDS011;4988;49.238;6.698;2023-04-01T23:45:03;8.80;;;5.20;;
9898;SDS011;4988;49.238;6.698;2023-04-01T23:47:37;10.33;;;5.23;;
9898;SDS011;4988;49.238;6.698;2023-04-01T23:50:15;8.90;;;5.17;;
9898;SDS011;4988;49.238;6.698;2023-04-01T23:52:46;8.20;;;5.10;;
9898;SDS011;4988;49.238;6.698;2023-04-01T23:55:14;7.33;;;4.77;;
